Time;durP1;ratioP1;P1;durP2;ratioP2;P2;SDS_P1;SDS_P2;PMS_P1;PMS_P2;Temp;Humidity;BMP_temperature;BMP_pressure;BME280_temperature;BME280_humidity;BME280_pressure;Samples;Min_cycle;Max_cycle;Signal;HPM_P1;HPM_P2
2023/11/07 00:02:14;;;;;;;5.88;1.48;;;8.30;99.90;;;;;;5058397;28;20041;-60
2023/11/07 00:04:41;;;;;;;5.15;1.30;;;8.30;99.90;;;;;;5065882;28;20029;-63
2023/11/07 00:07:07;;;;;;;6.93;1.33;;;8.30;99.90;;;;;;5064661;28;20036;-62
2023/11/07 00:09:33;;;;;;;4.85;1.50;;;8.20;99.90;;;;;;5061351;28;20017;-61
2023/11/07 00:11:59;;;;;;;7.55;1.45;;;8.30;99.90;;;;;;5063675;28;20032;-62
2023/11/07 00:14:26;;;;;;;5.20;1.02;;;8.20;99.90;;;;;;5070004;28;20113;-61
2023/11/07 00:16:51;;;;;;;10.63;1.70;;;8.20;99.90;;;;;;5066203;28;20028;-62
2023/11/07 00:19:17;;;;;;;8.93;1.85;;;8.10;99.90;;;;;;5069114;28;20036;-62
2023/11/07 00:21:43;;;;;;;6.45;1.50;;;8.10;99.90;;;;;;5062333;28;20036;-62
2023/11/07 00:24:09;;;;;;;5.15;1.30;;;8.10;99.90;;;;;;5066926;28;20154;-62
2023/11/07 00:26:34;;;;;;;2.92;1.38;;;8.00;99.90;;;;;;5054341;28;20029;-62
2023/11/07 00:29:00;;;;;;;2.72;1.48;;;8.00;99.90;;;;;;5064311;28;20020;-62
2023/11/07 00:31:26;;;;;;;9.63;1.80;;;8.00;99.90;;;;;;5057517;28;20027;-62
2023/11/07 00:33:51;;;;;;;4.13;2.03;;;7.90;99.90;;;;;;5067351;28;20103;-62
2023/11/07 00:36:17;;;;;;;5.70;1.40;;;7.90;99.90;;;;;;5059069;28;20109;-62
2023/11/07 00:38:42;;;;;;;7.15;1.05;;;7.90;99.90;;;;;;5067290;28;20024;-62
2023/11/07 00:41:08;;;;;;;6.00;1.05;;;7.90;99.90;;;;;;5066322;28;20024;-62
2023/11/07 00:43:37;;;;;;;7.03;1.63;;;7.80;99.90;;;;;;5061903;28;20096;-60
2023/11/07 00:46:03;;;;;;;8.77;1.45;;;7.80;99.90;;;;;;5062884;28;20028;-62
2023/11/07 00:48:29;;;;;;;3.97;1.30;;;7.80;99.90;;;;;;5067265;28;20028;-62
2023/11/07 00:50:54;;;;;;;2.85;1.33;;;7.70;99.90;;;;;;5057028;28;20077;-62
2023/11/07 00:53:20;;;;;;;4.75;1.30;;;7.70;99.90;;;;;;5064293;28;20025;-62
2023/11/07 00:55:46;;;;;;;2.33;1.20;;;7.70;99.90;;;;;;5064109;28;20139;-62
2023/11/07 00:58:11;;;;;;;4.95;1.33;;;7.70;99.90;;;;;;5055332;28;20029;-62
2023/11/07 01:00:37;;;;;;;6.60;1.30;;;7.70;99.90;;;;;;5060022;28;20394;-62
2023/11/07 01:03:03;;;;;;;5.80;1.60;;;7.70;99.90;;;;;;5065414;28;20039;-61
2023/11/07 01:05:29;;;;;;;5.35;1.40;;;7.70;99.90;;;;;;5063093;28;20029;-63
2023/11/07 01:07:54;;;;;;;3.00;1.60;;;7.70;99.90;;;;;;5065458;28;20077;-62
2023/11/07 01:10:21;;;;;;;14.30;1.58;;;7.70;99.90;;;;;;5063160;28;20028;-62
2023/11/07 01:12:46;;;;;;;9.65;1.88;;;7.60;99.90;;;;;;5070099;28;20020;-62
2023/11/07 01:15:12;;;;;;;12.35;1.20;;;7.60;99.90;;;;;;5064435;28;20039;-62
2023/11/07 01:17:37;;;;;;;8.38;1.30;;;7.60;99.90;;;;;;5060935;28;20034;-62
2023/11/07 01:20:06;;;;;;;6.00;1.35;;;7.60;99.90;;;;;;5065679;28;20028;-62
2023/11/07 01:22:32;;;;;;;4.57;1.40;;;7.50;99.90;;;;;;5055432;28;20031;-62
2023/11/07 01:24:57;;;;;;;3.38;1.30;;;7.40;99.90;;;;;;5065335;28;20028;-62
2023/11/07 01:27:24;;;;;;;3.42;1.35;;;7.30;99.90;;;;;;5059353;28;20040;-61
2023/11/07 01:29:50;;;;;;;4.70;1.00;;;7.30;99.90;;;;;;5062417;28;20040;-62
2023/11/07 01:32:17;;;;;;;2.05;1.23;;;7.30;99.90;;;;;;5056709;28;20521;-62
2023/11/07 01:34:42;;;;;;;1.77;1.33;;;7.20;99.90;;;;;;5065288;28;20029;-62
2023/11/07 01:37:08;;;;;;;4.97;1.20;;;7.10;99.90;;;;;;5059967;28;20539;-61
2023/11/07 01:39:33;;;;;;;6.60;1.75;;;6.90;99.90;;;;;;5067976;28;20412;-62
2023/11/07 01:41:59;;;;;;;5.05;1.67;;;6.90;99.90;;;;;;5064184;28;20390;-62
2023/11/07 01:44:28;;;;;;;5.95;1.48;;;6.80;99.90;;;;;;5066754;28;20029;-62
2023/11/07 01:46:55;;;;;;;5.25;1.00;;;6.70;99.90;;;;;;5069879;28;20020;-62
2023/11/07 01:49:22;;;;;;;2.65;0.90;;;6.60;99.90;;;;;;5068418;28;20078;-62
2023/11/07 01:51:48;;;;;;;9.27;1.15;;;6.50;99.90;;;;;;5064932;28;20526;-62
2023/11/07 01:54:14;;;;;;;6.82;1.58;;;6.50;99.90;;;;;;5072562;28;20037;-62
2023/11/07 01:56:40;;;;;;;4.15;1.30;;;6.50;99.90;;;;;;5064443;28;20446;-62
2023/11/07 01:59:05;;;;;;;5.20;1.35;;;6.40;99.90;;;;;;5064724;28;20053;-62
2023/11/07 02:01:32;;;;;;;3.15;1.20;;;6.40;99.90;;;;;;5060488;28;20128;-62
2023/11/07 02:03:58;;;;;;;3.40;1.00;;;6.40;99.90;;;;;;5068178;28;20024;-62
2023/11/07 02:06:24;;;;;;;6.03;1.20;;;6.40;99.90;;;;;;5061019;28;20028;-62
2023/11/07 02:08:50;;;;;;;3.30;1.30;;;6.40;99.90;;;;;;5065691;28;20029;-62
2023/11/07 02:11:15;;;;;;;3.50;1.20;;;6.40;99.90;;;;;;5061374;28;20096;-62
2023/11/07 02:13:47;;;;;;;10.27;1.17;;;6.40;99.90;;;;;;5070258;28;20036;-62
2023/11/07 02:16:13;;;;;;;3.90;1.40;;;6.30;99.90;;;;;;5061195;28;20016;-62
2023/11/07 02:18:38;;;;;;;5.47;1.45;;;6.30;99.90;;;;;;5058027;28;20513;-62
2023/11/07 02:21:04;;;;;;;6.15;1.45;;;6.30;99.90;;;;;;5060612;28;20395;-61
2023/11/07 02:23:33;;;;;;;5.25;1.20;;;6.30;99.90;;;;;;5065068;28;20013;-61
2023/11/07 02:25:58;;;;;;;8.90;1.58;;;6.30;99.90;;;;;;5066828;28;20490;-62
2023/11/07 02:28:24;;;;;;;12.40;2.75;;;6.30;99.90;;;;;;5064634;28;20036;-61
2023/11/07 02:30:50;;;;;;;1.42;1.05;;;6.20;99.90;;;;;;5069286;28;20036;-62
2023/11/07 02:33:15;;;;;;;10.57;1.58;;;6.20;99.90;;;;;;5064294;28;20112;-62
2023/11/07 02:35:41;;;;;;;5.80;1.40;;;6.20;99.90;;;;;;5065296;28;20089;-62
2023/11/07 02:38:07;;;;;;;8.20;1.58;;;6.20;99.90;;;;;;5060248;28;20364;-62
2023/11/07 02:40:33;;;;;;;3.83;1.65;;;6.10;99.90;;;;;;5065745;28;20457;-62
2023/11/07 02:43:04;;;;;;;6.57;1.00;;;6.00;99.90;;;;;;5066000;28;20112;-62
2023/11/07 02:45:30;;;;;;;6.65;1.30;;;6.00;99.90;;;;;;5067441;28;20020;-62
2023/11/07 02:47:58;;;;;;;8.98;1.30;;;6.00;99.90;;;;;;5064533;28;20025;-62
2023/11/07 02:50:24;;;;;;;5.30;1.20;;;6.00;99.90;;;;;;5064104;28;20490;-62
2023/11/07 02:52:50;;;;;;;3.30;1.27;;;6.10;99.90;;;;;;5063597;28;20028;-61
2023/11/07 02:55:15;;;;;;;3.38;1.10;;;6.10;99.90;;;;;;5068387;28;20027;-62
2023/11/07 02:57:41;;;;;;;6.13;1.58;;;6.20;99.90;;;;;;5064094;28;20040;-62
2023/11/07 03:00:10;;;;;;;6.13;1.05;;;6.20;99.90;;;;;;5064939;28;20390;-62
2023/11/07 03:02:39;;;;;;;4.03;0.98;;;6.10;99.90;;;;;;5058931;28;20063;-61
2023/11/07 03:05:06;;;;;;;3.80;1.13;;;6.20;99.90;;;;;;5071646;28;20501;-62
2023/11/07 03:07:33;;;;;;;3.42;1.20;;;6.10;99.90;;;;;;5055372;28;20021;-62
2023/11/07 03:10:00;;;;;;;6.80;1.38;;;6.20;99.90;;;;;;5067635;28;20043;-61
2023/11/07 03:12:26;;;;;;;8.18;1.85;;;6.10;99.90;;;;;;5057429;28;20503;-62
2023/11/07 03:14:52;;;;;;;5.78;1.73;;;6.10;99.90;;;;;;5065697;28;20375;-62
2023/11/07 03:17:17;;;;;;;4.60;1.30;;;6.10;99.90;;;;;;5065966;28;20028;-62
2023/11/07 03:19:43;;;;;;;12.23;1.90;;;6.10;99.90;;;;;;5068496;28;20477;-62
2023/11/07 03:22:09;;;;;;;8.05;1.35;;;6.00;99.90;;;;;;5058910;28;20021;-62
2023/11/07 03:24:35;;;;;;;15.23;1.63;;;6.00;99.90;;;;;;5067016;28;20029;-61
2023/11/07 03:27:01;;;;;;;2.47;1.17;;;5.90;99.90;;;;;;5061535;28;20502;-62
2023/11/07 03:29:27;;;;;;;12.05;1.38;;;5.90;99.90;;;;;;5067403;28;20017;-61
2023/11/07 03:31:53;;;;;;;4.10;1.40;;;5.70;99.90;;;;;;5062651;28;20032;-61
2023/11/07 03:34:19;;;;;;;7.00;1.10;;;5.70;99.90;;;;;;5064235;28;20027;-62
2023/11/07 03:36:44;;;;;;;2.25;1.35;;;5.70;99.90;;;;;;5067621;28;20028;-62
2023/11/07 03:39:10;;;;;;;6.47;1.23;;;5.70;99.90;;;;;;5062648;28;20101;-61
2023/11/07 03:41:39;;;;;;;7.40;1.05;;;5.70;99.90;;;;;;5063239;28;20395;-62
2023/11/07 03:44:05;;;;;;;5.55;1.17;;;5.70;99.90;;;;;;5063249;28;20017;-62
2023/11/07 03:46:30;;;;;;;3.13;1.40;;;5.70;99.90;;;;;;5062914;28;20031;-62
2023/11/07 03:48:56;;;;;;;2.17;1.20;;;5.70;99.90;;;;;;5062794;28;20029;-62
2023/11/07 03:51:21;;;;;;;1.77;0.88;;;5.80;99.90;;;;;;5058326;28;20032;-61
2023/11/07 03:53:48;;;;;;;5.65;1.25;;;5.80;99.90;;;;;;5059845;28;20025;-62
2023/11/07 03:56:15;;;;;;;4.82;1.38;;;5.80;99.90;;;;;;5063821;28;20099;-62
2023/11/07 03:58:41;;;;;;;2.97;0.93;;;5.80;99.90;;;;;;5058320;28;20116;-62
2023/11/07 04:01:07;;;;;;;3.60;1.67;;;5.90;99.90;;;;;;5067867;28;20107;-62
2023/11/07 04:03:32;;;;;;;1.30;0.98;;;5.90;99.90;;;;;;5064623;28;20028;-61
2023/11/07 04:05:58;;;;;;;13.18;1.50;;;5.90;99.90;;;;;;5064059;28;20622;-62
2023/11/07 04:08:24;;;;;;;5.35;1.15;;;5.90;99.90;;;;;;5056124;28;20483;-61
2023/11/07 04:10:49;;;;;;;7.03;1.30;;;6.00;99.90;;;;;;5064487;28;20074;-62
2023/11/07 04:13:15;;;;;;;12.27;2.05;;;6.00;99.90;;;;;;5056498;28;20017;-62
2023/11/07 04:15:42;;;;;;;6.75;1.40;;;6.00;99.90;;;;;;5064350;28;20605;-62
2023/11/07 04:18:09;;;;;;;10.30;1.38;;;6.10;99.90;;;;;;5056604;28;20052;-62
2023/11/07 04:20:36;;;;;;;2.40;1.30;;;6.20;99.90;;;;;;5060919;28;20060;-62
2023/11/07 04:23:01;;;;;;;4.22;1.00;;;6.30;99.90;;;;;;5056878;28;20033;-63
2023/11/07 04:25:27;;;;;;;5.22;1.23;;;6.30;99.90;;;;;;5061160;28;20040;-62
2023/11/07 04:27:52;;;;;;;6.85;1.45;;;6.40;99.90;;;;;;5064115;28;20030;-61
2023/11/07 04:30:18;;;;;;;1.85;0.98;;;6.40;99.90;;;;;;5062100;28;20039;-62
2023/11/07 04:32:43;;;;;;;1.50;1.23;;;6.50;99.90;;;;;;5065538;28;20035;-62
2023/11/07 04:35:11;;;;;;;8.68;1.65;;;6.50;99.90;;;;;;5063285;28;20025;-62
2023/11/07 04:37:37;;;;;;;18.90;1.92;;;6.60;99.90;;;;;;5060825;28;20495;-62
2023/11/07 04:40:04;;;;;;;4.30;1.65;;;6.70;99.90;;;;;;5065634;28;20040;-62
2023/11/07 04:42:30;;;;;;;10.13;1.40;;;6.80;99.90;;;;;;5058626;28;20016;-62
2023/11/07 04:44:55;;;;;;;5.88;1.60;;;6.80;99.90;;;;;;5061554;28;20395;-62
2023/11/07 04:47:22;;;;;;;3.35;1.73;;;6.80;99.90;;;;;;5062836;28;20024;-62
2023/11/07 04:49:49;;;;;;;1.90;1.05;;;6.80;99.90;;;;;;5061477;28;20017;-62
2023/11/07 04:52:14;;;;;;;4.05;1.50;;;6.80;99.90;;;;;;5061813;28;20029;-62
2023/11/07 04:54:40;;;;;;;5.18;1.75;;;6.80;99.90;;;;;;5060640;28;20029;-62
2023/11/07 04:57:06;;;;;;;5.70;1.40;;;6.90;99.90;;;;;;5058864;28;20130;-62
2023/11/07 04:59:32;;;;;;;4.28;1.67;;;6.90;99.90;;;;;;5061023;28;20029;-62
2023/11/07 05:01:58;;;;;;;7.05;1.70;;;7.00;99.90;;;;;;5062668;28;20021;-62
2023/11/07 05:04:24;;;;;;;3.50;1.60;;;7.00;99.90;;;;;;5059322;28;20520;-62
2023/11/07 05:06:49;;;;;;;6.00;1.45;;;7.00;99.90;;;;;;5059551;28;20029;-61
2023/11/07 05:09:15;;;;;;;4.30;1.58;;;7.00;99.90;;;;;;5057192;28;20044;-62
2023/11/07 05:11:40;;;;;;;3.22;1.58;;;7.00;99.90;;;;;;5068198;28;20502;-62
2023/11/07 05:14:09;;;;;;;3.10;1.60;;;7.00;99.90;;;;;;5065054;28;20043;-62
2023/11/07 05:16:39;;;;;;;9.13;1.98;;;7.10;99.90;;;;;;5061711;28;20410;-62
2023/11/07 05:19:07;;;;;;;3.28;1.20;;;7.10;99.90;;;;;;5061012;28;20116;-62
2023/11/07 05:21:33;;;;;;;4.05;1.88;;;7.20;99.90;;;;;;5063792;28;20036;-62
2023/11/07 05:23:59;;;;;;;5.38;1.58;;;7.20;99.90;;;;;;5062878;28;20392;-61
2023/11/07 05:26:25;;;;;;;6.72;1.50;;;7.30;99.90;;;;;;5057305;28;20017;-62
2023/11/07 05:28:50;;;;;;;5.47;1.80;;;7.30;99.90;;;;;;5060555;28;20023;-62
2023/11/07 05:31:16;;;;;;;11.57;1.83;;;7.40;99.90;;;;;;5062452;28;20026;-62
2023/11/07 05:33:44;;;;;;;4.25;1.98;;;7.40;99.90;;;;;;5059854;28;20115;-62
2023/11/07 05:36:09;;;;;;;7.88;2.05;;;7.50;99.90;;;;;;5057707;28;20025;-59
2023/11/07 05:38:35;;;;;;;1.98;1.58;;;7.50;99.90;;;;;;5060080;28;20103;-62
2023/11/07 05:41:01;;;;;;;8.15;1.60;;;7.60;99.90;;;;;;5058240;28;20095;-62
2023/11/07 05:43:26;;;;;;;5.75;1.48;;;7.60;99.90;;;;;;5059038;28;20032;-61
2023/11/07 05:45:52;;;;;;;6.15;1.90;;;7.70;99.90;;;;;;5063678;28;20024;-61
2023/11/07 05:48:23;;;;;;;6.22;1.77;;;7.80;99.90;;;;;;5056776;28;20013;-61
2023/11/07 05:50:48;;;;;;;4.05;1.70;;;7.80;99.90;;;;;;5063011;28;20048;-62
2023/11/07 05:53:14;;;;;;;5.93;1.48;;;7.90;99.90;;;;;;5055497;28;20053;-62
2023/11/07 05:55:39;;;;;;;4.63;1.17;;;7.90;99.90;;;;;;5054404;28;20037;-63
2023/11/07 05:58:07;;;;;;;1.48;1.20;;;7.90;99.90;;;;;;5063708;28;20054;-62
2023/11/07 06:00:33;;;;;;;3.40;1.27;;;8.00;99.90;;;;;;5059923;28;20506;-58
2023/11/07 06:02:59;;;;;;;3.63;1.17;;;8.00;99.90;;;;;;5065232;28;20055;-62
2023/11/07 06:05:24;;;;;;;11.18;1.15;;;8.10;99.90;;;;;;5058066;28;20049;-63
2023/11/07 06:07:55;;;;;;;6.63;1.63;;;8.10;99.90;;;;;;5064435;28;20033;-63
2023/11/07 06:10:21;;;;;;;4.93;1.30;;;8.20;99.90;;;;;;5059853;28;20020;-64
2023/11/07 06:12:46;;;;;;;4.85;1.30;;;8.30;99.90;;;;;;5063300;28;20051;-64
2023/11/07 06:15:12;;;;;;;2.97;1.02;;;8.30;99.90;;;;;;5058135;28;20052;-62
2023/11/07 06:17:38;;;;;;;4.43;1.10;;;8.30;99.90;;;;;;5079249;28;20063;-64
2023/11/07 06:20:03;;;;;;;3.90;0.90;;;8.40;99.90;;;;;;5067828;28;20086;-64
2023/11/07 06:22:29;;;;;;;4.10;1.10;;;8.40;99.90;;;;;;5055486;28;20025;-62
2023/11/07 06:24:54;;;;;;;16.38;4.60;;;8.50;99.90;;;;;;5067355;28;20394;-63
2023/11/07 06:27:20;;;;;;;4.18;1.27;;;8.50;99.90;;;;;;5068087;28;20017;-63
2023/11/07 06:29:46;;;;;;;4.75;0.98;;;8.50;99.90;;;;;;5061876;28;20029;-64
2023/11/07 06:32:13;;;;;;;6.10;0.70;;;8.60;99.90;;;;;;5067640;28;20029;-64
2023/11/07 06:34:40;;;;;;;4.03;0.60;;;8.60;99.90;;;;;;5065230;28;20104;-63
2023/11/07 06:37:06;;;;;;;4.70;0.90;;;8.60;99.90;;;;;;5072617;28;20459;-64
2023/11/07 06:39:32;;;;;;;1.95;0.70;;;8.70;99.90;;;;;;5061955;28;20104;-63
2023/11/07 06:41:58;;;;;;;7.10;1.00;;;8.70;99.90;;;;;;5056138;28;20036;-65
2023/11/07 06:44:24;;;;;;;0.98;0.75;;;8.80;99.90;;;;;;5062471;28;20024;-64
2023/11/07 06:46:51;;;;;;;3.33;0.80;;;8.80;99.90;;;;;;5061352;28;20178;-64
2023/11/07 06:49:17;;;;;;;3.90;0.80;;;8.80;99.90;;;;;;5063063;28;20495;-64
2023/11/07 06:51:43;;;;;;;3.97;1.00;;;8.90;99.90;;;;;;5059258;28;20668;-64
2023/11/07 06:54:09;;;;;;;4.75;0.80;;;8.90;99.90;;;;;;5063785;28;20031;-63
2023/11/07 06:56:34;;;;;;;2.67;0.90;;;8.90;99.90;;;;;;5060505;28;20037;-63
2023/11/07 06:59:00;;;;;;;9.48;1.48;;;8.90;99.90;;;;;;5063644;28;20108;-63
2023/11/07 07:01:28;;;;;;;1.55;0.80;;;8.90;99.90;;;;;;5060776;28;20024;-63
2023/11/07 07:03:54;;;;;;;1.90;0.80;;;8.90;99.90;;;;;;5057396;28;20423;-63
2023/11/07 07:06:21;;;;;;;1.02;0.77;;;9.00;99.90;;;;;;5062801;28;20479;-63
2023/11/07 07:08:46;;;;;;;4.60;0.90;;;9.00;99.90;;;;;;5058084;28;20056;-63
2023/11/07 07:11:12;;;;;;;1.67;0.80;;;9.10;99.90;;;;;;5060095;28;20509;-63
2023/11/07 07:13:38;;;;;;;5.93;1.10;;;9.10;99.90;;;;;;5066064;28;20029;-62
2023/11/07 07:16:05;;;;;;;1.83;0.88;;;9.10;99.90;;;;;;5056872;28;20537;-63
2023/11/07 07:18:31;;;;;;;3.17;0.88;;;9.10;99.90;;;;;;5058938;28;20025;-63
2023/11/07 07:20:57;;;;;;;3.53;1.10;;;9.20;99.90;;;;;;5061641;28;20043;-64
2023/11/07 07:23:29;;;;;;;4.38;1.08;;;9.10;99.90;;;;;;5065547;28;20040;-63
2023/11/07 07:25:56;;;;;;;4.95;1.23;;;9.20;99.90;;;;;;5062485;28;20032;-63
2023/11/07 07:28:24;;;;;;;2.03;1.05;;;9.20;99.90;;;;;;5058137;28;20066;-58
2023/11/07 07:30:50;;;;;;;2.05;0.77;;;9.20;99.90;;;;;;5060313;28;20020;-62
2023/11/07 07:33:18;;;;;;;3.28;1.55;;;9.20;99.90;;;;;;5059814;28;20056;-63
2023/11/07 07:35:46;;;;;;;2.67;0.90;;;9.30;99.90;;;;;;5063939;28;20021;-63
2023/11/07 07:38:11;;;;;;;5.30;0.95;;;9.40;99.90;;;;;;5062092;28;20033;-63
2023/11/07 07:40:38;;;;;;;1.13;0.65;;;9.50;99.90;;;;;;5062635;28;20043;-62
2023/11/07 07:43:11;;;;;;;2.25;0.90;;;9.60;99.90;;;;;;5060261;28;20075;-61
2023/11/07 07:45:39;;;;;;;7.20;1.10;;;9.70;99.90;;;;;;5061528;28;20086;-62
2023/11/07 07:48:06;;;;;;;2.92;1.83;;;9.80;99.90;;;;;;5055475;28;20028;-63
2023/11/07 07:50:32;;;;;;;2.72;0.90;;;9.80;99.90;;;;;;5060267;28;20072;-62
2023/11/07 07:53:01;;;;;;;8.77;2.63;;;9.80;99.90;;;;;;5060458;28;20028;-63
2023/11/07 07:55:27;;;;;;;4.88;0.90;;;9.80;99.90;;;;;;5067151;28;20021;-63
2023/11/07 07:57:54;;;;;;;1.55;0.75;;;9.80;99.90;;;;;;5058299;28;20470;-62
2023/11/07 08:00:24;;;;;;;4.72;0.98;;;9.90;99.90;;;;;;5060254;28;20020;-63
2023/11/07 08:02:51;;;;;;;2.55;0.90;;;9.90;99.90;;;;;;5059176;28;20052;-63
2023/11/07 08:05:18;;;;;;;3.80;1.20;;;10.00;99.90;;;;;;5058323;28;20411;-63
2023/11/07 08:07:44;;;;;;;2.22;1.20;;;10.00;99.90;;;;;;5064235;28;20029;-63
2023/11/07 08:10:16;;;;;;;5.68;0.90;;;10.10;99.90;;;;;;5064282;28;20031;-63
2023/11/07 08:12:42;;;;;;;2.45;0.70;;;10.10;99.90;;;;;;5065296;28;20518;-61
2023/11/07 08:15:09;;;;;;;1.98;0.60;;;10.20;99.90;;;;;;5061852;28;20036;-62
2023/11/07 08:17:35;;;;;;;2.47;0.65;;;10.30;99.90;;;;;;5061312;28;20111;-63
2023/11/07 08:20:14;;;;;;;2.22;0.50;;;10.50;99.90;;;;;;5058555;28;20025;-63
2023/11/07 08:22:40;;;;;;;1.95;0.65;;;10.60;99.90;;;;;;5059213;28;20037;-60
2023/11/07 08:25:06;;;;;;;5.63;0.80;;;10.60;99.90;;;;;;5055280;28;22020;-63
2023/11/07 08:27:33;;;;;;;1.75;0.55;;;10.70;99.90;;;;;;5064699;28;20052;-63
2023/11/07 08:29:59;;;;;;;9.57;3.05;;;10.70;99.90;;;;;;5058343;28;20027;-63
2023/11/07 08:32:29;;;;;;;12.15;3.33;;;10.70;99.90;;;;;;5055372;28;20021;-62
2023/11/07 08:34:55;;;;;;;1.13;0.57;;;10.70;99.90;;;;;;5059033;28;20052;-62
2023/11/07 08:37:21;;;;;;;4.50;0.70;;;10.80;99.90;;;;;;5058763;28;20053;-61
2023/11/07 08:39:47;;;;;;;0.63;0.50;;;10.80;99.90;;;;;;5057292;28;20514;-60
2023/11/07 08:42:14;;;;;;;2.35;0.50;;;10.80;99.90;;;;;;5060269;28;20421;-63
2023/11/07 08:44:39;;;;;;;3.10;0.60;;;10.80;99.90;;;;;;5063805;28;20029;-62
2023/11/07 08:47:06;;;;;;;4.55;0.50;;;10.80;99.90;;;;;;5058041;28;20509;-63
2023/11/07 08:49:31;;;;;;;1.95;0.50;;;10.80;99.90;;;;;;5061655;28;20028;-62
2023/11/07 08:51:57;;;;;;;1.77;0.60;;;10.80;99.90;;;;;;5053981;28;20032;-62
2023/11/07 08:54:23;;;;;;;1.50;0.47;;;10.80;99.90;;;;;;5055812;28;20398;-63
2023/11/07 08:56:49;;;;;;;2.80;0.57;;;10.90;99.90;;;;;;5056247;28;20111;-61
2023/11/07 08:59:15;;;;;;;0.80;0.57;;;10.90;99.90;;;;;;5061043;28;20020;-63
2023/11/07 09:01:41;;;;;;;2.22;0.77;;;10.90;99.90;;;;;;5054933;28;20040;-63
2023/11/07 09:04:09;;;;;;;4.18;1.48;;;11.00;99.90;;;;;;5060798;28;20541;-63
2023/11/07 09:06:37;;;;;;;12.60;1.15;;;11.10;99.90;;;;;;5060175;28;20032;-63
2023/11/07 09:09:03;;;;;;;3.33;0.60;;;11.20;99.90;;;;;;5062834;28;20029;-63
2023/11/07 09:11:29;;;;;;;2.30;1.15;;;11.30;99.90;;;;;;5064039;28;20024;-63
2023/11/07 09:13:54;;;;;;;4.70;1.08;;;11.30;99.90;;;;;;5059433;28;20032;-63
2023/11/07 09:16:20;;;;;;;7.38;0.70;;;11.40;99.90;;;;;;5057053;28;20438;-64
2023/11/07 09:18:46;;;;;;;4.90;0.65;;;11.50;99.90;;;;;;5060433;28;20091;-64
2023/11/07 09:21:13;;;;;;;3.28;0.77;;;11.50;99.90;;;;;;5059390;28;20028;-64
2023/11/07 09:23:38;;;;;;;4.55;0.60;;;11.50;99.90;;;;;;5055761;28;20586;-64
2023/11/07 09:26:04;;;;;;;3.28;0.60;;;11.50;99.90;;;;;;5059387;28;20113;-64
2023/11/07 09:28:29;;;;;;;5.65;0.70;;;11.50;99.90;;;;;;5061223;28;20025;-64
2023/11/07 09:30:57;;;;;;;1.95;0.70;;;11.50;99.90;;;;;;5048488;28;20068;-64
2023/11/07 09:33:22;;;;;;;1.45;0.52;;;11.40;99.90;;;;;;5060559;28;21057;-64
2023/11/07 09:35:48;;;;;;;3.60;0.60;;;11.40;99.90;;;;;;5060008;28;20107;-62
2023/11/07 09:38:14;;;;;;;3.13;0.70;;;11.60;99.90;;;;;;5057139;28;20490;-64
2023/11/07 09:40:44;;;;;;;2.75;0.80;;;11.70;99.90;;;;;;5065828;28;20086;-65
2023/11/07 09:43:12;;;;;;;2.67;0.73;;;12.00;99.90;;;;;;5055426;28;20503;-64
2023/11/07 09:45:39;;;;;;;2.78;0.73;;;12.00;99.90;;;;;;5060762;28;20032;-63
2023/11/07 09:48:09;;;;;;;2.33;0.93;;;12.10;99.90;;;;;;5055184;28;20542;-64
2023/11/07 09:50:40;;;;;;;5.28;0.60;;;12.20;99.90;;;;;;5061559;28;20526;-64
2023/11/07 09:53:11;;;;;;;4.82;1.42;;;12.20;99.90;;;;;;5053800;28;20033;-63
2023/11/07 09:55:37;;;;;;;2.70;0.80;;;12.20;99.90;;;;;;5055284;28;20016;-64
2023/11/07 09:58:08;;;;;;;7.25;0.95;;;12.20;99.90;;;;;;5056320;28;20048;-64
2023/11/07 10:00:36;;;;;;;2.78;1.15;;;12.10;99.90;;;;;;5061926;28;20051;-64
2023/11/07 10:03:02;;;;;;;8.43;0.95;;;12.20;99.90;;;;;;5065276;28;20021;-63
2023/11/07 10:05:30;;;;;;;4.28;0.85;;;12.20;99.90;;;;;;5064716;28;20027;-64
2023/11/07 10:07:59;;;;;;;2.53;0.65;;;12.20;99.90;;;;;;5058514;28;20102;-63
2023/11/07 10:10:25;;;;;;;2.80;1.00;;;12.30;99.90;;;;;;5059015;28;20017;-63
2023/11/07 10:12:51;;;;;;;2.50;0.70;;;12.30;99.90;;;;;;5061342;28;20576;-64
2023/11/07 10:15:23;;;;;;;1.75;0.60;;;12.30;99.90;;;;;;5060307;28;20025;-64
2023/11/07 10:18:08;;;;;;;1.55;0.70;;;12.20;99.90;;;;;;5062874;28;20052;-64
2023/11/07 10:20:35;;;;;;;2.60;0.80;;;12.20;99.90;;;;;;5061160;28;20407;-64
2023/11/07 10:23:01;;;;;;;2.97;0.50;;;12.20;99.90;;;;;;5058408;28;20395;-64
2023/11/07 10:25:29;;;;;;;4.05;0.70;;;12.20;99.90;;;;;;5065036;28;20017;-64
2023/11/07 10:28:03;;;;;;;6.15;1.10;;;12.10;99.90;;;;;;5059708;28;20111;-64
2023/11/07 10:30:45;;;;;;;16.60;0.90;;;12.10;99.90;;;;;;5060896;28;20479;-65
2023/11/07 10:33:32;;;;;;;10.48;1.02;;;12.20;99.90;;;;;;5058486;28;20025;-65
2023/11/07 10:36:00;;;;;;;0.95;0.80;;;12.30;99.90;;;;;;5057205;28;20638;-64
2023/11/07 10:38:26;;;;;;;4.03;0.90;;;12.30;99.90;;;;;;5059181;28;20742;-64
2023/11/07 10:40:52;;;;;;;4.18;1.20;;;12.40;99.90;;;;;;5061703;28;20498;-64
2023/11/07 10:43:34;;;;;;;2.00;0.82;;;12.40;99.90;;;;;;5068031;28;20109;-64
2023/11/07 10:46:10;;;;;;;3.28;0.70;;;12.50;99.90;;;;;;5057963;28;20056;-64
2023/11/07 10:48:41;;;;;;;3.15;0.47;;;12.60;99.90;;;;;;5064266;28;20633;-64
2023/11/07 10:51:11;;;;;;;1.63;0.70;;;12.60;99.90;;;;;;5061698;28;20279;-64
2023/11/07 10:53:38;;;;;;;3.65;0.80;;;12.60;99.90;;;;;;5062598;28;20386;-65
2023/11/07 10:56:15;;;;;;;4.18;0.70;;;12.70;99.90;;;;;;5058657;28;20025;-64
2023/11/07 10:58:48;;;;;;;4.43;0.90;;;12.70;99.90;;;;;;5058941;28;20037;-64
2023/11/07 11:01:16;;;;;;;2.95;0.65;;;12.80;99.90;;;;;;5060566;28;20118;-64
2023/11/07 11:03:45;;;;;;;3.13;0.80;;;12.90;99.90;;;;;;5058584;28;20032;-62
2023/11/07 11:06:14;;;;;;;0.88;0.50;;;12.90;99.90;;;;;;5057898;28;20476;-63
2023/11/07 11:08:42;;;;;;;3.70;0.60;;;13.00;99.90;;;;;;5061020;28;20040;-63
2023/11/07 11:11:08;;;;;;;4.53;0.63;;;13.00;99.90;;;;;;5052738;28;20075;-63
2023/11/07 11:13:37;;;;;;;3.75;0.50;;;13.10;99.90;;;;;;5066675;28;20024;-64
2023/11/07 11:16:03;;;;;;;3.78;0.73;;;13.20;99.90;;;;;;5059068;28;20028;-64
2023/11/07 11:18:45;;;;;;;3.03;0.63;;;13.30;99.90;;;;;;5063809;28;20058;-62
2023/11/07 11:21:16;;;;;;;3.90;1.25;;;13.50;99.90;;;;;;5055468;28;20189;-64
2023/11/07 11:24:01;;;;;;;4.70;0.95;;;13.70;99.90;;;;;;5059863;28;20033;-64
2023/11/07 11:26:31;;;;;;;;;;;13.50;99.90;;;;;;5056049;28;20070;-64
2023/11/07 11:28:56;;;;;;;6.32;1.05;;;13.30;99.90;;;;;;5061132;28;19908;-61
2023/11/07 11:31:24;;;;;;;1.02;0.60;;;13.40;99.90;;;;;;5056896;28;20028;-64
2023/11/07 11:34:25;;;;;;;5.35;1.00;;;13.50;99.90;;;;;;5060034;28;20040;-64
2023/11/07 11:37:01;;;;;;;1.73;0.68;;;13.30;99.90;;;;;;5067427;28;20033;-64
2023/11/07 11:39:26;;;;;;;3.20;0.77;;;12.90;99.90;;;;;;5053749;28;20025;-64
2023/11/07 11:42:04;;;;;;;3.47;0.70;;;12.80;99.90;;;;;;5066377;28;20029;-64
2023/11/07 11:44:31;;;;;;;4.63;0.80;;;12.80;99.90;;;;;;5059678;28;20025;-61
2023/11/07 11:46:56;;;;;;;4.68;0.95;;;12.80;99.90;;;;;;5064837;28;20066;-64
2023/11/07 11:49:23;;;;;;;3.42;0.60;;;12.90;99.90;;;;;;5050810;28;20025;-61
2023/11/07 11:51:51;;;;;;;1.55;0.98;;;13.10;99.90;;;;;;5063232;28;20059;-63
2023/11/07 11:54:23;;;;;;;6.70;0.98;;;13.20;99.90;;;;;;5054763;28;20040;-64
2023/11/07 11:56:48;;;;;;;5.47;0.80;;;13.00;99.90;;;;;;5064898;28;20031;-64
2023/11/07 11:59:15;;;;;;;6.53;0.65;;;13.00;99.90;;;;;;5060641;28;20020;-63
2023/11/07 12:01:52;;;;;;;3.47;0.75;;;13.20;99.90;;;;;;5061056;28;20032;-64
2023/11/07 12:04:38;;;;;;;2.08;0.70;;;13.30;99.90;;;;;;5053020;28;20115;-63
2023/11/07 12:07:07;;;;;;;3.28;0.70;;;13.20;99.90;;;;;;5056264;28;20449;-64
2023/11/07 12:09:37;;;;;;;2.80;0.70;;;13.10;99.90;;;;;;5062264;28;20078;-64
2023/11/07 12:12:03;;;;;;;3.88;0.77;;;13.10;99.90;;;;;;5060126;28;20098;-62
2023/11/07 12:14:29;;;;;;;3.33;0.90;;;13.20;99.90;;;;;;5065428;28;20436;-64
2023/11/07 12:16:55;;;;;;;5.22;0.68;;;13.20;99.90;;;;;;5060334;28;20034;-64
2023/11/07 12:19:21;;;;;;;2.72;0.50;;;13.60;99.90;;;;;;5064901;28;20043;-64
2023/11/07 12:21:50;;;;;;;3.88;0.80;;;14.20;99.90;;;;;;5055657;28;20083;-61
2023/11/07 12:24:19;;;;;;;1.80;0.70;;;14.00;99.90;;;;;;5062095;28;20033;-64
2023/11/07 12:26:45;;;;;;;1.73;0.65;;;13.90;99.90;;;;;;5062669;28;20042;-64
2023/11/07 12:29:12;;;;;;;3.70;0.70;;;13.80;99.90;;;;;;5063010;28;20036;-64
2023/11/07 12:31:38;;;;;;;2.03;0.90;;;13.40;99.90;;;;;;5059629;28;20060;-63
2023/11/07 12:34:04;;;;;;;4.60;0.90;;;13.30;99.90;;;;;;5060613;28;20376;-64
2023/11/07 12:36:31;;;;;;;2.35;0.70;;;13.30;99.90;;;;;;5058745;28;20021;-64
2023/11/07 12:38:57;;;;;;;2.88;0.85;;;13.50;99.90;;;;;;5054162;28;20111;-63
2023/11/07 12:41:24;;;;;;;1.75;1.02;;;13.50;99.90;;;;;;5058112;28;20031;-64
2023/11/07 12:43:49;;;;;;;5.90;1.13;;;13.40;99.90;;;;;;5063715;28;20506;-63
2023/11/07 12:46:16;;;;;;;7.28;1.02;;;13.30;99.90;;;;;;5059582;28;20033;-64
2023/11/07 12:48:44;;;;;;;5.40;0.90;;;13.40;99.90;;;;;;5061386;28;20433;-64
2023/11/07 12:51:11;;;;;;;1.80;0.68;;;13.20;99.90;;;;;;5057937;28;20050;-64
2023/11/07 12:53:50;;;;;;;4.18;0.80;;;13.30;99.90;;;;;;5062570;28;20044;-64